createdAt,value
2023-05-18T00:02:16.271Z,46.32
2023-05-18T00:04:44.357Z,46.46
2023-05-18T00:07:13.121Z,46.23
2023-05-18T00:09:42.425Z,46.09
2023-05-18T00:12:10.923Z,46.29
2023-05-18T00:14:38.560Z,46.32
2023-05-18T00:17:06.564Z,46.58
2023-05-18T00:19:34.215Z,46.69
2023-05-18T00:22:02.200Z,46.41
2023-05-18T00:24:29.944Z,47.32
2023-05-18T00:26:58.905Z,47.47
2023-05-18T00:29:26.511Z,47.04
2023-05-18T00:31:54.249Z,46.98
2023-05-18T00:34:21.992Z,47.04
2023-05-18T00:36:49.802Z,47.71
2023-05-18T00:39:17.574Z,47.19
2023-05-18T00:41:45.441Z,47.12
2023-05-18T00:44:14.539Z,47.29
2023-05-18T00:46:44.175Z,47.33
2023-05-18T00:49:12.552Z,47.17
2023-05-18T00:51:40.435Z,47.69
2023-05-18T00:54:08.359Z,47.61
2023-05-18T00:56:41.694Z,47.87
2023-05-18T00:59:10.500Z,47.58
2023-05-18T01:01:43.593Z,47.80
2023-05-18T01:04:14.328Z,47.82
2023-05-18T01:06:42.804Z,47.86
2023-05-18T01:09:13.492Z,47.54
2023-05-18T01:11:52.079Z,47.94
2023-05-18T01:14:29.336Z,47.89
2023-05-18T01:17:14.650Z,47.89
2023-05-18T01:20:07.026Z,48.24
2023-05-18T01:22:46.771Z,48.14
2023-05-18T01:25:23.651Z,48.40
2023-05-18T01:27:56.073Z,48.46
2023-05-18T01:30:24.432Z,48.55
2023-05-18T01:32:52.104Z,48.48
2023-05-18T01:35:19.856Z,49.02
2023-05-18T01:37:47.491Z,48.99
2023-05-18T01:40:15.578Z,48.91
2023-05-18T01:42:48.642Z,48.80
2023-05-18T01:45:27.407Z,48.51
2023-05-18T01:47:59.283Z,48.71
2023-05-18T01:50:37.616Z,48.74
2023-05-18T01:53:09.681Z,49.17
2023-05-18T01:55:38.129Z,49.76
2023-05-18T01:58:07.790Z,49.21
2023-05-18T02:00:37.668Z,49.26
2023-05-18T02:03:05.508Z,49.47
2023-05-18T02:05:33.169Z,49.39
2023-05-18T02:08:01.037Z,49.40
2023-05-18T02:10:28.753Z,49.19
2023-05-18T02:12:56.399Z,49.55
2023-05-18T02:15:24.187Z,49.62
2023-05-18T02:17:58.102Z,49.49
2023-05-18T02:20:27.432Z,50.08
2023-05-18T02:22:56.194Z,49.83
2023-05-18T02:25:24.144Z,49.67
2023-05-18T02:27:52.664Z,49.94
2023-05-18T02:30:20.935Z,49.75
2023-05-18T02:32:49.356Z,50.06
2023-05-18T02:35:18.945Z,50.08
2023-05-18T02:37:47.348Z,50.02
2023-05-18T02:40:15.956Z,50.32
2023-05-18T02:42:43.859Z,50.33
2023-05-18T02:45:11.935Z,50.35
2023-05-18T02:47:39.627Z,50.60
2023-05-18T02:50:08.493Z,50.55
2023-05-18T02:52:37.509Z,50.63
2023-05-18T02:55:06.232Z,50.94
2023-05-18T02:57:34.449Z,50.61
2023-05-18T03:00:02.123Z,50.76
2023-05-18T03:02:30.112Z,50.69
2023-05-18T03:04:57.920Z,51.01
2023-05-18T03:07:27.632Z,50.78
2023-05-18T03:09:56.667Z,50.95
2023-05-18T03:12:24.389Z,50.55
2023-05-18T03:14:51.979Z,51.03
2023-05-18T03:17:19.587Z,51.19
2023-05-18T03:19:47.262Z,51.95
2023-05-18T03:22:15.036Z,51.64
2023-05-18T03:24:43.209Z,51.28
2023-05-18T03:27:16.637Z,51.29
2023-05-18T03:29:44.290Z,51.42
2023-05-18T03:32:11.928Z,51.23
2023-05-18T03:34:39.567Z,51.89
2023-05-18T03:37:07.203Z,52.00
2023-05-18T03:39:34.871Z,51.87
2023-05-18T03:42:02.708Z,51.50
2023-05-18T03:44:31.811Z,51.27
2023-05-18T03:46:59.491Z,51.64
2023-05-18T03:49:27.181Z,51.70
2023-05-18T03:51:54.823Z,51.82
2023-05-18T03:54:22.567Z,52.07
2023-05-18T03:56:51.039Z,51.87
2023-05-18T03:59:18.692Z,51.83
2023-05-18T04:01:47.701Z,51.63
2023-05-18T04:04:18.678Z,51.57
2023-05-18T04:06:46.938Z,51.97
2023-05-18T04:09:17.302Z,51.60
2023-05-18T04:11:45.137Z,51.98
2023-05-18T04:14:14.163Z,51.85
2023-05-18T04:16:42.959Z,51.87
2023-05-18T04:19:12.061Z,51.73
2023-05-18T04:21:43.513Z,51.97
2023-05-18T04:24:14.488Z,52.21
2023-05-18T04:26:42.673Z,52.24
2023-05-18T04:29:13.341Z,52.58
2023-05-18T04:31:44.727Z,52.14
2023-05-18T04:34:14.253Z,52.06
2023-05-18T04:36:42.752Z,52.47
2023-05-18T04:39:11.115Z,52.04
2023-05-18T04:41:42.237Z,52.09
2023-05-18T04:44:10.180Z,51.79
2023-05-18T04:46:40.766Z,51.74
2023-05-18T04:49:09.242Z,52.08
2023-05-18T04:51:38.253Z,51.75
2023-05-18T04:54:06.483Z,52.23
2023-05-18T04:56:34.384Z,52.26
2023-05-18T04:59:02.628Z,52.70
2023-05-18T05:01:30.398Z,52.49
2023-05-18T05:03:59.676Z,52.40
2023-05-18T05:06:27.698Z,52.34
2023-05-18T05:08:56.757Z,52.06
2023-05-18T05:11:24.442Z,52.28
2023-05-18T05:13:52.103Z,51.72
2023-05-18T05:16:19.796Z,51.52
2023-05-18T05:18:47.639Z,51.71
2023-05-18T05:21:15.420Z,51.53
2023-05-18T05:23:45.307Z,51.18
2023-05-18T05:26:14.585Z,51.49
2023-05-18T05:28:42.196Z,51.31
2023-05-18T05:31:10.542Z,51.00
2023-05-18T05:33:38.240Z,51.86
2023-05-18T05:36:06.417Z,51.61
2023-05-18T05:38:34.126Z,51.36
2023-05-18T05:41:01.861Z,51.38
2023-05-18T05:43:30.922Z,51.48
2023-05-18T05:45:58.623Z,51.38
2023-05-18T05:48:26.303Z,51.54
2023-05-18T05:50:53.986Z,51.42
2023-05-18T05:53:23.474Z,51.03
2023-05-18T05:55:51.117Z,51.00
2023-05-18T05:58:19.210Z,51.04
2023-05-18T06:00:48.696Z,50.96
2023-05-18T06:03:16.391Z,50.48
2023-05-18T06:05:44.067Z,50.61
2023-05-18T06:08:11.798Z,50.11
2023-05-18T06:10:41.219Z,50.52
2023-05-18T06:13:08.928Z,50.72
2023-05-18T06:15:36.621Z,50.27
2023-05-18T06:18:06.116Z,50.62
2023-05-18T06:20:33.944Z,50.30
2023-05-18T06:23:02.029Z,50.16
2023-05-18T06:25:29.877Z,49.89
2023-05-18T06:27:57.693Z,49.70
2023-05-18T06:30:25.372Z,49.62
2023-05-18T06:32:53.088Z,49.55
2023-05-18T06:35:22.711Z,49.55
2023-05-18T06:37:50.407Z,49.54
2023-05-18T06:40:18.331Z,49.21
2023-05-18T06:42:46.210Z,49.51
2023-05-18T06:45:14.058Z,49.67
2023-05-18T06:47:42.556Z,49.46
2023-05-18T06:50:11.090Z,49.01
2023-05-18T06:52:40.259Z,49.22
2023-05-18T06:55:09.181Z,49.12
2023-05-18T06:57:36.786Z,49.09
2023-05-18T07:00:07.306Z,48.84
2023-05-18T07:02:35.107Z,48.57
2023-05-18T07:05:05.536Z,48.49
2023-05-18T07:07:33.422Z,48.19
2023-05-18T07:10:03.595Z,47.93
2023-05-18T07:12:31.499Z,48.14
2023-05-18T07:14:59.277Z,47.95
2023-05-18T07:17:27.042Z,47.80
2023-05-18T07:19:54.773Z,47.74
2023-05-18T07:22:22.482Z,47.55
2023-05-18T07:24:50.370Z,47.35
2023-05-18T07:27:19.393Z,47.32
2023-05-18T07:29:47.041Z,47.32
2023-05-18T07:32:14.755Z,47.03
2023-05-18T07:34:43.440Z,46.87
2023-05-18T07:37:11.154Z,46.78
2023-05-18T07:39:38.934Z,46.77
2023-05-18T07:42:07.221Z,46.33
2023-05-18T07:44:36.289Z,46.24
2023-05-18T07:47:04.151Z,46.23
2023-05-18T07:49:31.795Z,46.04
2023-05-18T07:52:00.516Z,45.76
2023-05-18T07:54:28.211Z,45.74
2023-05-18T07:56:57.450Z,45.50
2023-05-18T07:59:26.212Z,45.20
2023-05-18T08:01:55.255Z,44.83
2023-05-18T08:04:23.005Z,45.17
2023-05-18T08:06:54.628Z,44.97
2023-05-18T08:09:22.964Z,44.39
2023-05-18T08:11:52.230Z,44.59
2023-05-18T08:14:19.885Z,44.50
2023-05-18T08:16:47.651Z,44.12
2023-05-18T08:19:16.920Z,44.25
2023-05-18T08:21:45.673Z,43.92
2023-05-18T08:24:13.573Z,44.27
2023-05-18T08:26:41.226Z,43.78
2023-05-18T08:29:10.594Z,43.75
2023-05-18T08:31:39.004Z,43.69
2023-05-18T08:34:07.624Z,43.81
2023-05-18T08:36:37.347Z,43.72
2023-05-18T08:39:05.784Z,43.25
2023-05-18T08:41:37.162Z,42.78
2023-05-18T08:44:10.543Z,42.41
2023-05-18T08:46:42.622Z,42.71
2023-05-18T08:49:11.503Z,42.22
2023-05-18T08:51:43.548Z,42.19
2023-05-18T08:54:12.766Z,42.04
2023-05-18T08:56:40.958Z,41.64
2023-05-18T08:59:10.019Z,41.79
2023-05-18T09:01:38.372Z,41.48
2023-05-18T09:04:06.762Z,41.12
2023-05-18T09:06:35.934Z,41.51
2023-05-18T09:09:06.460Z,41.32
2023-05-18T09:11:36.078Z,40.73
2023-05-18T09:14:03.755Z,40.83
2023-05-18T09:16:31.564Z,41.10
2023-05-18T09:18:59.423Z,40.96
2023-05-18T09:21:27.273Z,41.59
2023-05-18T09:23:55.235Z,42.03
2023-05-18T09:26:24.588Z,42.51
2023-05-18T09:28:54.008Z,40.90
2023-05-18T09:31:24.553Z,40.38
2023-05-18T09:33:53.473Z,40.12
2023-05-18T09:36:26.056Z,40.08
2023-05-18T09:38:54.206Z,39.94
2023-05-18T09:41:21.862Z,38.73
2023-05-18T09:43:52.437Z,37.69
2023-05-18T09:46:22.054Z,39.09
2023-05-18T09:48:52.745Z,40.24
2023-05-18T09:51:21.864Z,35.60
2023-05-18T09:53:50.508Z,37.82
2023-05-18T09:56:19.137Z,37.96
2023-05-18T09:58:47.171Z,37.22
2023-05-18T10:01:16.289Z,36.49
2023-05-18T10:03:45.729Z,36.28
2023-05-18T10:06:13.948Z,36.56
2023-05-18T10:08:42.401Z,36.77
2023-05-18T10:11:10.274Z,36.72
2023-05-18T10:13:39.725Z,36.55
2023-05-18T10:16:09.210Z,36.00
2023-05-18T10:18:39.443Z,35.99
2023-05-18T10:21:08.108Z,36.01
2023-05-18T10:23:37.769Z,36.05
2023-05-18T10:26:07.695Z,36.28
2023-05-18T10:28:42.166Z,36.17
2023-05-18T10:31:10.252Z,35.56
2023-05-18T10:33:39.361Z,35.39
2023-05-18T10:36:08.484Z,36.01
2023-05-18T10:38:39.750Z,35.77
2023-05-18T10:41:08.727Z,35.63
2023-05-18T10:43:37.341Z,35.86
2023-05-18T10:46:07.394Z,34.80
2023-05-18T10:48:40.804Z,34.57
2023-05-18T10:51:09.319Z,34.96
2023-05-18T10:53:37.842Z,35.45
2023-05-18T10:56:07.779Z,34.32
2023-05-18T10:58:37.974Z,33.75
2023-05-18T11:01:10.371Z,33.28
2023-05-18T11:03:40.992Z,31.89
2023-05-18T11:06:13.023Z,31.88
2023-05-18T11:08:45.470Z,32.65
2023-05-18T11:11:13.224Z,32.70
2023-05-18T11:13:46.202Z,31.98
2023-05-18T11:16:13.841Z,32.73
2023-05-18T11:18:45.642Z,32.20
2023-05-18T11:21:51.608Z,32.81
2023-05-18T11:24:24.751Z,32.05
2023-05-18T11:26:54.288Z,31.90
2023-05-18T11:29:24.491Z,32.02
2023-05-18T11:31:53.986Z,32.56
2023-05-18T11:34:42.274Z,32.08
2023-05-18T11:37:10.839Z,33.11
2023-05-18T11:39:47.879Z,32.71
2023-05-18T11:42:20.452Z,33.10
2023-05-18T11:44:53.340Z,33.28
2023-05-18T11:47:21.106Z,31.13
2023-05-18T11:49:53.120Z,31.76
2023-05-18T11:52:22.081Z,33.35
2023-05-18T11:54:53.144Z,33.71
2023-05-18T11:57:22.190Z,33.29
2023-05-18T11:59:54.963Z,33.31
2023-05-18T12:02:26.725Z,32.96
2023-05-18T12:04:58.047Z,32.55
2023-05-18T12:07:26.178Z,33.00
2023-05-18T12:09:53.927Z,33.32
2023-05-18T12:12:23.311Z,32.95
2023-05-18T12:14:55.816Z,32.67
2023-05-18T12:17:24.373Z,32.46
2023-05-18T12:19:52.173Z,32.29
2023-05-18T12:22:21.478Z,31.55
2023-05-18T12:24:52.644Z,32.10
2023-05-18T12:27:22.963Z,33.31
2023-05-18T12:29:51.028Z,33.51
2023-05-18T12:32:18.992Z,33.90
2023-05-18T12:34:46.699Z,33.98
2023-05-18T12:37:14.371Z,33.83
2023-05-18T12:39:43.429Z,34.01
2023-05-18T12:42:12.561Z,34.33
2023-05-18T12:44:40.564Z,33.93
2023-05-18T12:47:08.270Z,33.14
2023-05-18T12:49:39.943Z,32.62
2023-05-18T12:52:12.661Z,33.31
2023-05-18T12:54:59.809Z,32.98
2023-05-18T12:57:30.903Z,33.51
2023-05-18T12:59:59.096Z,34.32
2023-05-18T13:02:34.541Z,33.72
2023-05-18T13:05:03.579Z,33.51
2023-05-18T13:07:31.333Z,33.48
2023-05-18T13:10:06.772Z,34.18
2023-05-18T13:12:40.211Z,34.06
2023-05-18T13:15:12.391Z,33.32
2023-05-18T13:17:40.519Z,33.77
2023-05-18T13:20:15.540Z,33.85
2023-05-18T13:22:44.492Z,33.47
2023-05-18T13:25:14.620Z,33.18
2023-05-18T13:27:42.541Z,32.63
2023-05-18T13:30:11.230Z,33.11
2023-05-18T13:32:39.152Z,32.49
2023-05-18T13:35:07.437Z,32.14
2023-05-18T13:37:35.388Z,32.69
2023-05-18T13:40:03.249Z,32.74
2023-05-18T13:42:32.310Z,32.36
2023-05-18T13:44:59.974Z,32.95
2023-05-18T13:47:27.647Z,32.92
2023-05-18T13:49:55.348Z,33.19
2023-05-18T13:52:23.112Z,32.93
2023-05-18T13:54:50.890Z,33.44
2023-05-18T13:57:18.634Z,32.16
2023-05-18T13:59:47.793Z,32.10
2023-05-18T14:02:15.599Z,32.43
2023-05-18T14:04:43.348Z,32.61
2023-05-18T14:07:11.119Z,31.89
2023-05-18T14:09:38.800Z,32.14
2023-05-18T14:12:07.470Z,32.33
2023-05-18T14:14:35.103Z,32.48
2023-05-18T14:17:04.307Z,32.17
2023-05-18T14:19:32.044Z,32.16
2023-05-18T14:21:59.730Z,32.14
2023-05-18T14:24:27.497Z,32.28
2023-05-18T14:26:55.136Z,32.44
2023-05-18T14:29:22.809Z,32.82
2023-05-18T14:31:51.013Z,33.46
2023-05-18T14:34:20.053Z,33.11
2023-05-18T14:36:47.770Z,32.53
2023-05-18T14:39:15.489Z,32.92
2023-05-18T14:41:43.172Z,32.75
2023-05-18T14:44:11.042Z,32.78
2023-05-18T14:46:39.107Z,33.43
2023-05-18T14:49:06.833Z,33.59
2023-05-18T14:51:36.024Z,33.14
2023-05-18T14:54:03.819Z,32.65
2023-05-18T14:56:31.765Z,32.55
2023-05-18T14:58:59.482Z,32.33
2023-05-18T15:01:27.191Z,32.64
2023-05-18T15:03:54.923Z,32.73
2023-05-18T15:06:22.762Z,32.66
2023-05-18T15:08:51.772Z,32.18
2023-05-18T15:11:20.129Z,32.48
2023-05-18T15:13:47.924Z,32.80
2023-05-18T15:16:16.177Z,32.28
2023-05-18T15:18:44.218Z,32.24
2023-05-18T15:21:11.875Z,32.30
2023-05-18T15:23:39.511Z,32.30
2023-05-18T15:26:09.380Z,32.12
2023-05-18T15:28:37.160Z,32.54
2023-05-18T15:31:04.833Z,31.89
2023-05-18T15:33:32.693Z,32.21
2023-05-18T15:36:00.471Z,32.38
2023-05-18T15:38:29.652Z,32.39
2023-05-18T15:40:57.401Z,32.88
2023-05-18T15:43:26.591Z,32.97
2023-05-18T15:45:54.378Z,32.70
2023-05-18T15:48:22.078Z,32.72
2023-05-18T15:50:49.846Z,33.52
2023-05-18T15:53:17.499Z,33.68
2023-05-18T15:55:45.257Z,33.19
2023-05-18T15:58:14.635Z,33.07
2023-05-18T16:00:44.164Z,32.79
2023-05-18T16:03:12.496Z,33.00
2023-05-18T16:05:40.449Z,32.74
2023-05-18T16:08:08.112Z,33.03
2023-05-18T16:10:38.417Z,33.13
2023-05-18T16:13:06.511Z,33.44
2023-05-18T16:15:35.190Z,33.16
2023-05-18T16:18:04.435Z,33.19
2023-05-18T16:20:32.483Z,32.75
2023-05-18T16:23:00.643Z,32.62
2023-05-18T16:25:29.328Z,32.76
2023-05-18T16:27:57.075Z,32.48
2023-05-18T16:30:24.766Z,32.60
2023-05-18T16:32:52.489Z,32.40
2023-05-18T16:35:21.584Z,32.13
2023-05-18T16:37:49.243Z,31.99
2023-05-18T16:40:16.914Z,32.40
2023-05-18T16:42:47.174Z,32.79
2023-05-18T16:45:14.940Z,33.33
2023-05-18T16:47:42.693Z,32.84
2023-05-18T16:50:11.274Z,32.85
2023-05-18T16:52:40.270Z,32.76
2023-05-18T16:55:08.479Z,33.43
2023-05-18T16:57:36.783Z,33.31
2023-05-18T17:00:09.156Z,33.70
2023-05-18T17:02:38.401Z,33.68
2023-05-18T17:05:08.448Z,33.39
2023-05-18T17:07:36.970Z,33.65
2023-05-18T17:10:07.091Z,33.78
2023-05-18T17:12:36.373Z,33.79
2023-05-18T17:15:04.395Z,33.97
2023-05-18T17:17:32.192Z,33.56
2023-05-18T17:19:59.847Z,33.55
2023-05-18T17:22:27.582Z,32.76
2023-05-18T17:24:55.315Z,32.71
2023-05-18T17:27:24.342Z,34.10
2023-05-18T17:29:52.139Z,34.18
2023-05-18T17:32:20.086Z,33.44
2023-05-18T17:34:47.757Z,33.61
2023-05-18T17:37:15.568Z,34.33
2023-05-18T17:39:43.383Z,33.89
2023-05-18T17:42:11.006Z,33.40
2023-05-18T17:44:40.320Z,33.20
2023-05-18T17:47:08.313Z,33.04
2023-05-18T17:49:35.981Z,32.82
2023-05-18T17:52:03.731Z,33.31
2023-05-18T17:54:31.500Z,33.36
2023-05-18T17:56:59.168Z,33.51
2023-05-18T17:59:26.847Z,33.68
2023-05-18T18:01:55.838Z,33.75
2023-05-18T18:04:23.551Z,33.54
2023-05-18T18:06:54.206Z,34.13
2023-05-18T18:09:22.715Z,33.75
2023-05-18T18:11:50.458Z,33.87
2023-05-18T18:14:18.210Z,33.83
2023-05-18T18:16:45.913Z,34.62
2023-05-18T18:19:15.004Z,34.20
2023-05-18T18:21:42.756Z,34.07
2023-05-18T18:25:06.022Z,34.15
2023-05-18T19:59:01.503Z,41.40
2023-05-18T20:01:29.192Z,40.98
2023-05-18T20:03:59.186Z,40.91
2023-05-18T20:06:28.066Z,41.09
2023-05-18T20:08:55.845Z,40.79
2023-05-18T20:11:23.523Z,40.92
2023-05-18T20:13:51.471Z,40.70
2023-05-18T20:16:20.534Z,40.90
2023-05-18T20:18:48.180Z,40.84
2023-05-18T20:21:17.761Z,41.36
2023-05-18T20:23:47.258Z,41.45
2023-05-18T20:26:14.931Z,41.16
2023-05-18T20:28:42.666Z,41.65
2023-05-18T20:31:10.533Z,42.21
2023-05-18T20:33:39.698Z,41.79
2023-05-18T20:36:09.025Z,41.31
2023-05-18T20:38:38.681Z,43.67
2023-05-18T20:41:08.017Z,42.99
2023-05-18T20:43:37.719Z,42.06
2023-05-18T20:46:05.853Z,42.08
2023-05-18T20:48:35.779Z,41.83
2023-05-18T20:51:05.359Z,42.36
2023-05-18T20:53:33.201Z,42.47
2023-05-18T20:56:01.555Z,41.77
2023-05-18T20:58:29.292Z,41.83
2023-05-18T21:00:57.007Z,41.79
2023-05-18T21:03:24.758Z,42.01
2023-05-18T21:05:52.926Z,42.29
2023-05-18T21:08:21.967Z,42.78
2023-05-18T21:10:49.658Z,43.05
2023-05-18T21:13:17.379Z,43.01
2023-05-18T21:15:45.112Z,43.21
2023-05-18T21:18:12.925Z,43.04
2023-05-18T21:20:40.734Z,43.22
2023-05-18T21:23:08.436Z,43.19
2023-05-18T21:25:38.886Z,43.51
2023-05-18T21:28:06.504Z,43.12
2023-05-18T21:30:34.259Z,43.36
2023-05-18T21:33:02.193Z,43.76
2023-05-18T21:35:30.190Z,43.66
2023-05-18T21:37:57.912Z,43.72
2023-05-18T21:40:25.865Z,43.80
2023-05-18T21:42:56.121Z,44.15
2023-05-18T21:45:24.881Z,44.31
2023-05-18T21:47:52.635Z,44.04
2023-05-18T21:50:20.502Z,43.88
2023-05-18T21:52:48.199Z,44.28
2023-05-18T21:55:16.104Z,44.20
2023-05-18T21:57:43.904Z,44.57
2023-05-18T22:00:16.653Z,44.38
2023-05-18T22:02:44.434Z,44.22
2023-05-18T22:05:12.197Z,44.52
2023-05-18T22:07:40.000Z,44.36
2023-05-18T22:10:08.352Z,44.88
2023-05-18T22:12:37.459Z,44.59
2023-05-18T22:15:05.908Z,44.73
2023-05-18T22:17:36.543Z,44.70
2023-05-18T22:20:05.810Z,44.80
2023-05-18T22:22:36.323Z,45.27
2023-05-18T22:25:04.035Z,45.52
2023-05-18T22:27:33.749Z,45.40
2023-05-18T22:30:03.399Z,45.52
2023-05-18T22:32:32.657Z,45.46
2023-05-18T22:35:04.230Z,45.51
2023-05-18T22:37:32.590Z,45.34
2023-05-18T22:40:00.319Z,45.74
2023-05-18T22:42:28.077Z,45.69
2023-05-18T22:44:55.690Z,45.94
2023-05-18T22:47:23.805Z,45.76
2023-05-18T22:49:51.877Z,45.78
2023-05-18T22:52:21.223Z,45.88
2023-05-18T22:54:49.229Z,46.06
2023-05-18T22:57:17.101Z,46.27
2023-05-18T22:59:45.017Z,46.28
2023-05-18T23:02:13.139Z,46.34
2023-05-18T23:04:40.933Z,46.29
2023-05-18T23:07:08.665Z,46.25
2023-05-18T23:09:39.758Z,46.57
2023-05-18T23:12:10.263Z,46.45
2023-05-18T23:14:39.479Z,46.79
2023-05-18T23:17:08.145Z,46.80
2023-05-18T23:19:36.212Z,46.94
2023-05-18T23:22:05.528Z,47.01
2023-05-18T23:24:33.335Z,46.67
2023-05-18T23:27:02.411Z,46.86
2023-05-18T23:29:30.049Z,46.87
2023-05-18T23:31:57.939Z,46.80
2023-05-18T23:34:26.218Z,47.23
2023-05-18T23:36:57.416Z,46.78
2023-05-18T23:39:27.743Z,47.00
2023-05-18T23:41:59.124Z,47.04
2023-05-18T23:44:29.613Z,47.00
2023-05-18T23:46:57.872Z,47.27
2023-05-18T23:49:26.444Z,47.11
2023-05-18T23:51:55.089Z,47.13
2023-05-18T23:54:23.306Z,47.54
2023-05-18T23:56:51.585Z,47.23
2023-05-18T23:59:19.556Z,47.35
